Time;durP1;ratioP1;P1;durP2;ratioP2;P2;SDS_P1;SDS_P2;PMS_P1;PMS_P2;Temp;Humidity;BMP_temperature;BMP_pressure;BME280_temperature;BME280_humidity;BME280_pressure;Samples;Min_cycle;Max_cycle;Signal;HPM_P1;HPM_P2
2023/06/01 00:00:18;;;;;;;4.90;2.60;;;17.40;82.00;;;;;;10477838;28;20040;-64
2023/06/01 00:05:19;;;;;;;6.28;3.10;;;17.40;82.00;;;;;;10473765;28;20017;-65
2023/06/01 00:10:20;;;;;;;5.32;2.80;;;17.40;82.10;;;;;;10484341;28;20021;-65
2023/06/01 00:15:20;;;;;;;4.60;2.50;;;17.40;82.10;;;;;;10471674;28;20064;-64
2023/06/01 00:20:23;;;;;;;6.25;2.70;;;17.40;82.10;;;;;;10474602;28;20037;-64
2023/06/01 00:25:24;;;;;;;4.35;2.50;;;17.30;82.10;;;;;;10483649;28;20500;-64
2023/06/01 00:30:24;;;;;;;3.85;2.33;;;17.30;82.10;;;;;;10483800;28;20024;-64
2023/06/01 00:35:25;;;;;;;7.32;2.92;;;17.30;82.10;;;;;;10478224;28;20036;-65
2023/06/01 00:40:26;;;;;;;6.38;3.03;;;17.30;82.20;;;;;;10478385;28;20032;-65
2023/06/01 00:45:26;;;;;;;7.38;3.00;;;17.20;82.10;;;;;;10491862;28;20039;-65
2023/06/01 00:50:27;;;;;;;6.20;3.00;;;17.10;82.10;;;;;;10475352;28;20064;-65
2023/06/01 00:55:28;;;;;;;4.20;2.42;;;17.20;82.20;;;;;;10477226;28;20091;-64
2023/06/01 01:00:29;;;;;;;5.55;2.95;;;17.10;82.10;;;;;;10479662;28;20043;-65
2023/06/01 01:05:30;;;;;;;5.47;3.13;;;17.10;82.10;;;;;;10499354;28;20020;-65
2023/06/01 01:10:40;;;;;;;6.93;2.83;;;17.10;82.20;;;;;;10484293;28;20032;-65
2023/06/01 01:15:51;;;;;;;5.82;3.03;;;17.10;82.20;;;;;;10488365;28;20039;-65
2023/06/01 01:20:58;;;;;;;5.30;2.88;;;17.10;82.20;;;;;;10478115;28;20561;-64
2023/06/01 01:26:24;;;;;;;7.88;2.72;;;17.10;82.30;;;;;;10459857;28;20025;-65
2023/06/01 01:31:26;;;;;;;6.18;2.97;;;17.00;82.30;;;;;;10476275;28;20029;-65
2023/06/01 01:36:28;;;;;;;6.40;2.58;;;17.00;82.30;;;;;;10482780;28;20032;-65
2023/06/01 01:41:29;;;;;;;4.78;2.60;;;16.90;82.30;;;;;;10476321;28;20023;-65
2023/06/01 01:46:36;;;;;;;5.28;2.63;;;16.90;82.30;;;;;;10482137;28;20035;-65
2023/06/01 01:51:46;;;;;;;4.63;3.08;;;16.90;82.30;;;;;;10483728;28;20021;-66
2023/06/01 01:56:48;;;;;;;6.60;3.10;;;16.90;82.40;;;;;;10475607;28;20070;-65
2023/06/01 02:01:49;;;;;;;5.93;2.53;;;16.90;82.40;;;;;;10504084;28;20096;-64
2023/06/01 02:06:50;;;;;;;7.07;3.15;;;16.80;82.40;;;;;;10468709;28;20029;-64
2023/06/01 02:11:51;;;;;;;6.00;2.60;;;16.80;82.40;;;;;;10471866;28;20033;-66
2023/06/01 02:16:53;;;;;;;4.53;2.85;;;16.80;82.50;;;;;;10476877;28;20043;-64
2023/06/01 02:21:54;;;;;;;4.28;2.65;;;16.80;82.50;;;;;;10474934;28;20029;-65
2023/06/01 02:26:55;;;;;;;6.45;2.70;;;16.70;82.40;;;;;;10475202;28;20428;-65
2023/06/01 02:31:56;;;;;;;8.02;3.60;;;16.70;82.40;;;;;;10478201;28;20436;-65
2023/06/01 02:36:56;;;;;;;5.10;2.97;;;16.70;82.40;;;;;;10469630;28;20120;-65
2023/06/01 02:41:57;;;;;;;6.97;3.38;;;16.70;82.40;;;;;;10472790;28;20027;-64
2023/06/01 02:46:58;;;;;;;6.40;3.05;;;16.70;82.40;;;;;;10476289;28;20127;-65
2023/06/01 02:51:59;;;;;;;7.00;3.17;;;16.60;82.30;;;;;;10460045;28;20367;-64
2023/06/01 02:57:01;;;;;;;5.00;2.78;;;16.60;82.30;;;;;;10474729;28;20029;-65
2023/06/01 03:02:02;;;;;;;6.55;3.10;;;16.60;82.30;;;;;;10474225;28;20123;-65
2023/06/01 03:07:02;;;;;;;9.23;3.20;;;16.60;82.30;;;;;;10478525;28;20039;-65
2023/06/01 03:12:03;;;;;;;6.78;2.63;;;16.50;82.30;;;;;;10469248;28;20315;-65
2023/06/01 03:17:04;;;;;;;5.20;2.97;;;16.50;82.30;;;;;;10472734;28;20025;-65
2023/06/01 03:22:05;;;;;;;6.30;3.47;;;16.50;82.30;;;;;;10479783;28;20028;-65
2023/06/01 03:27:06;;;;;;;5.95;3.38;;;16.50;82.30;;;;;;10469330;28;20058;-65
2023/06/01 03:32:08;;;;;;;6.65;3.33;;;16.40;82.20;;;;;;10471552;28;20111;-65
2023/06/01 03:37:08;;;;;;;8.35;3.25;;;16.40;82.20;;;;;;10469946;28;20081;-64
2023/06/01 03:42:09;;;;;;;6.35;3.00;;;16.40;82.30;;;;;;10473933;28;21162;-65
2023/06/01 03:47:09;;;;;;;6.30;3.10;;;16.40;82.30;;;;;;10476757;28;20037;-64
2023/06/01 03:52:10;;;;;;;6.22;3.28;;;16.40;82.30;;;;;;10475630;28;20039;-65
2023/06/01 03:57:11;;;;;;;6.18;3.55;;;16.40;82.30;;;;;;10472436;28;20079;-65
2023/06/01 04:02:11;;;;;;;6.40;2.97;;;16.30;82.30;;;;;;10466368;28;20032;-65
2023/06/01 04:07:21;;;;;;;4.97;2.88;;;16.40;82.30;;;;;;10474266;28;20047;-64
2023/06/01 04:12:22;;;;;;;7.38;2.95;;;16.30;82.30;;;;;;10477418;28;20033;-65
2023/06/01 04:17:22;;;;;;;4.22;2.65;;;16.30;82.30;;;;;;10480452;28;20438;-65
2023/06/01 04:22:23;;;;;;;4.78;3.08;;;16.40;82.30;;;;;;10482877;28;20192;-64
2023/06/01 04:27:24;;;;;;;8.38;3.03;;;16.30;82.30;;;;;;10483893;28;20028;-65
2023/06/01 04:32:27;;;;;;;6.88;2.75;;;16.30;82.30;;;;;;10481134;28;20025;-65
2023/06/01 04:37:29;;;;;;;4.65;2.65;;;16.40;82.30;;;;;;10484050;28;20496;-64
2023/06/01 04:42:30;;;;;;;6.05;3.33;;;16.30;82.20;;;;;;10478040;28;20576;-65
2023/06/01 04:47:39;;;;;;;4.43;2.65;;;16.30;82.30;;;;;;10486105;28;20008;-66
2023/06/01 04:52:41;;;;;;;5.38;2.75;;;16.20;82.30;;;;;;10473682;28;20500;-65
2023/06/01 04:57:45;;;;;;;4.78;2.95;;;16.20;82.20;;;;;;10480265;28;20024;-65
2023/06/01 05:02:47;;;;;;;3.80;2.42;;;16.20;82.20;;;;;;10480387;28;20029;-65
2023/06/01 05:07:49;;;;;;;5.40;2.30;;;16.20;82.30;;;;;;10488803;28;20035;-64
2023/06/01 05:12:49;;;;;;;5.00;2.42;;;16.20;82.30;;;;;;10477579;28;20021;-65
2023/06/01 05:17:50;;;;;;;4.95;2.28;;;16.20;82.30;;;;;;10485802;28;20090;-65
2023/06/01 05:22:51;;;;;;;4.03;2.15;;;16.20;82.30;;;;;;10479883;28;20035;-64
2023/06/01 05:27:52;;;;;;;4.32;2.40;;;16.20;82.30;;;;;;10482314;28;20112;-66
2023/06/01 05:32:52;;;;;;;4.18;2.67;;;16.20;82.30;;;;;;10482556;28;20085;-64
2023/06/01 05:37:53;;;;;;;3.40;2.17;;;16.20;82.30;;;;;;10486138;28;20306;-65
2023/06/01 05:42:53;;;;;;;5.63;2.75;;;16.20;82.30;;;;;;10483218;28;20021;-65
2023/06/01 05:47:54;;;;;;;8.07;2.90;;;16.20;82.30;;;;;;10483230;28;20025;-65
2023/06/01 05:52:55;;;;;;;5.28;2.42;;;16.20;82.30;;;;;;10482491;28;20035;-65
2023/06/01 05:57:55;;;;;;;4.32;2.70;;;16.20;82.30;;;;;;10484714;28;20046;-64
2023/06/01 06:02:56;;;;;;;4.80;2.58;;;16.20;82.30;;;;;;10468778;28;20048;-65
2023/06/01 06:07:57;;;;;;;4.82;2.40;;;16.10;82.20;;;;;;10481290;28;20127;-65
2023/06/01 06:12:57;;;;;;;4.03;2.60;;;16.20;82.20;;;;;;10482859;28;20244;-65
2023/06/01 06:17:58;;;;;;;4.03;2.60;;;16.20;82.20;;;;;;10482692;28;20031;-65
2023/06/01 06:22:58;;;;;;;5.20;2.58;;;16.20;82.20;;;;;;10475349;28;20398;-65
2023/06/01 06:27:59;;;;;;;5.55;2.40;;;16.20;82.30;;;;;;10487697;28;20347;-65
2023/06/01 06:33:00;;;;;;;4.35;2.40;;;16.20;82.20;;;;;;10487530;28;20032;-65
2023/06/01 06:38:00;;;;;;;4.82;2.20;;;16.20;82.20;;;;;;10486376;28;20425;-65
2023/06/01 06:43:01;;;;;;;5.25;2.28;;;16.20;82.30;;;;;;10481575;28;20107;-65
2023/06/01 06:48:02;;;;;;;5.45;2.40;;;16.20;82.30;;;;;;10478339;28;20645;-65
2023/06/01 06:53:03;;;;;;;5.05;2.67;;;16.20;82.30;;;;;;10479453;28;20037;-65
2023/06/01 06:58:04;;;;;;;3.70;2.30;;;16.30;82.30;;;;;;10482136;28;20047;-65
2023/06/01 07:03:05;;;;;;;5.00;2.28;;;16.20;82.20;;;;;;10485007;28;20206;-65
2023/06/01 07:08:05;;;;;;;6.00;2.33;;;16.20;82.20;;;;;;10474141;28;20330;-66
2023/06/01 07:13:06;;;;;;;7.18;2.38;;;16.20;82.30;;;;;;10475718;28;20386;-65
2023/06/01 07:18:07;;;;;;;4.68;2.28;;;16.20;82.20;;;;;;10471093;28;20369;-66
2023/06/01 07:23:08;;;;;;;4.80;2.30;;;16.30;82.30;;;;;;10474863;28;20029;-65
2023/06/01 07:28:09;;;;;;;3.05;2.05;;;16.30;82.30;;;;;;10471984;28;20024;-64
2023/06/01 07:33:10;;;;;;;5.30;2.22;;;16.30;82.30;;;;;;10477642;28;20412;-65
2023/06/01 07:38:11;;;;;;;3.40;2.30;;;16.30;82.30;;;;;;10476701;28;20503;-65
2023/06/01 07:43:11;;;;;;;4.78;2.33;;;16.30;82.30;;;;;;10481446;28;20025;-65
2023/06/01 07:48:12;;;;;;;4.22;2.30;;;16.30;82.30;;;;;;10479932;28;20044;-65
2023/06/01 07:53:13;;;;;;;3.05;1.92;;;16.40;82.30;;;;;;10476478;28;20081;-65
2023/06/01 07:58:14;;;;;;;4.07;2.60;;;16.30;82.30;;;;;;10473612;28;20718;-66
2023/06/01 08:03:15;;;;;;;5.18;2.83;;;16.30;82.30;;;;;;10473262;28;20118;-65
2023/06/01 08:08:15;;;;;;;8.05;2.35;;;16.40;82.30;;;;;;10465628;28;20036;-65
2023/06/01 08:13:16;;;;;;;4.78;2.60;;;16.40;82.30;;;;;;10475835;28;20089;-70
2023/06/01 08:18:19;;;;;;;6.97;2.67;;;16.20;82.40;;;;;;10479093;28;20037;-68
2023/06/01 08:23:22;;;;;;;9.35;2.88;;;15.70;83.90;;;;;;10475141;28;20028;-68
2023/06/01 08:28:22;;;;;;;7.90;2.60;;;15.70;83.60;;;;;;10470284;28;20082;-68
2023/06/01 08:33:23;;;;;;;4.00;2.53;;;15.40;83.90;;;;;;10475291;28;20563;-68
2023/06/01 08:38:28;;;;;;;5.25;2.42;;;15.10;84.60;;;;;;10474490;28;20499;-68
2023/06/01 08:43:32;;;;;;;8.30;4.10;;;14.70;85.40;;;;;;10477152;28;20033;-68
2023/06/01 08:48:34;;;;;;;4.68;2.55;;;14.60;85.90;;;;;;10474650;28;20032;-68
2023/06/01 08:53:35;;;;;;;6.65;2.95;;;14.70;85.90;;;;;;10483835;28;20028;-67
2023/06/01 08:58:36;;;;;;;3.75;2.33;;;14.50;85.90;;;;;;10474597;28;20016;-68
2023/06/01 09:03:37;;;;;;;7.25;2.47;;;14.40;86.30;;;;;;10487991;28;20033;-68
2023/06/01 09:08:38;;;;;;;5.63;2.10;;;14.40;86.30;;;;;;10488704;28;20029;-70
2023/06/01 09:13:39;;;;;;;4.05;1.83;;;14.40;86.80;;;;;;10480018;28;20044;-65
2023/06/01 09:18:52;;;;;;;4.50;1.98;;;14.50;86.30;;;;;;10491900;28;20023;-65
2023/06/01 09:23:52;;;;;;;5.32;2.20;;;14.80;86.00;;;;;;10478174;28;20039;-64
2023/06/01 09:28:57;;;;;;;9.77;2.92;;;15.10;85.10;;;;;;10483780;28;20495;-65
2023/06/01 09:34:01;;;;;;;6.57;2.20;;;15.30;84.60;;;;;;10486012;28;20220;-67
2023/06/01 09:39:09;;;;;;;3.78;1.77;;;15.60;84.40;;;;;;10483760;28;20028;-65
2023/06/01 09:44:10;;;;;;;5.67;2.10;;;15.70;84.00;;;;;;10477830;28;20044;-66
2023/06/01 09:49:22;;;;;;;4.10;1.98;;;15.80;83.80;;;;;;10483180;28;20044;-66
2023/06/01 09:54:28;;;;;;;2.63;1.70;;;15.90;83.80;;;;;;10477982;28;20392;-65
2023/06/01 09:59:36;;;;;;;3.30;1.70;;;16.00;83.70;;;;;;10486596;28;20476;-65
2023/06/01 10:04:39;;;;;;;3.78;1.75;;;16.10;83.70;;;;;;10478730;28;20016;-65
2023/06/01 10:09:43;;;;;;;3.78;2.10;;;16.10;83.70;;;;;;10489116;28;20051;-65
2023/06/01 10:14:44;;;;;;;3.60;1.90;;;16.10;83.80;;;;;;10481462;28;20016;-66
2023/06/01 10:19:45;;;;;;;5.07;1.63;;;16.20;83.90;;;;;;10484970;28;20020;-65
2023/06/01 10:24:46;;;;;;;5.85;2.25;;;16.20;83.90;;;;;;10480539;28;20025;-66
2023/06/01 10:29:47;;;;;;;2.78;1.60;;;16.30;83.90;;;;;;10480154;28;20024;-66
2023/06/01 10:34:47;;;;;;;3.13;1.48;;;16.30;83.90;;;;;;10487859;28;20020;-66
2023/06/01 10:39:48;;;;;;;5.15;1.55;;;16.30;83.90;;;;;;10479351;28;20021;-66
2023/06/01 10:44:49;;;;;;;6.28;1.60;;;16.30;83.90;;;;;;10487874;28;20458;-66
2023/06/01 10:49:51;;;;;;;2.53;1.48;;;16.30;84.00;;;;;;10477832;28;20045;-65
2023/06/01 10:54:52;;;;;;;3.95;1.75;;;16.30;84.10;;;;;;10484940;28;20016;-66
2023/06/01 11:00:12;;;;;;;4.57;1.73;;;16.30;84.20;;;;;;10492189;28;20035;-66
2023/06/01 11:05:38;;;;;;;4.57;1.40;;;16.30;84.40;;;;;;10477467;28;20526;-66
2023/06/01 11:10:50;;;;;;;2.83;1.50;;;16.40;84.50;;;;;;10481050;28;20053;-65
2023/06/01 11:16:27;;;;;;;3.80;1.70;;;16.40;84.50;;;;;;10486438;28;20448;-66
2023/06/01 11:21:35;;;;;;;5.13;1.98;;;16.50;84.50;;;;;;10474554;28;20036;-66
2023/06/01 11:26:41;;;;;;;3.58;1.52;;;16.40;84.20;;;;;;10476810;28;20388;-65
2023/06/01 11:31:47;;;;;;;5.18;2.28;;;16.50;84.30;;;;;;10482417;28;20049;-65
2023/06/01 11:36:50;;;;;;;3.53;1.67;;;16.50;84.20;;;;;;10478409;28;20068;-65
2023/06/01 11:42:07;;;;;;;2.92;1.67;;;16.50;84.20;;;;;;10477541;28;20020;-65
2023/06/01 11:47:09;;;;;;;2.95;1.60;;;16.50;84.20;;;;;;10488709;28;20255;-66
2023/06/01 11:52:10;;;;;;;2.45;1.50;;;16.60;84.20;;;;;;10477783;28;20243;-66
2023/06/01 11:57:11;;;;;;;5.22;1.90;;;16.50;84.10;;;;;;10479338;28;20029;-66
2023/06/01 12:02:22;;;;;;;2.95;1.90;;;16.70;84.20;;;;;;10482469;28;20032;-66
2023/06/01 12:07:24;;;;;;;1.70;1.45;;;16.60;84.20;;;;;;10484872;28;20376;-66
2023/06/01 12:12:25;;;;;;;2.67;1.58;;;16.60;84.00;;;;;;10486165;28;20115;-65
2023/06/01 12:17:49;;;;;;;5.30;2.00;;;16.70;84.10;;;;;;10492522;28;20114;-65
2023/06/01 12:22:49;;;;;;;3.83;1.58;;;16.70;84.10;;;;;;10476197;28;20018;-66
2023/06/01 12:28:07;;;;;;;3.33;1.52;;;16.60;83.90;;;;;;10484009;28;20025;-66
2023/06/01 12:33:08;;;;;;;3.80;1.73;;;16.80;83.90;;;;;;10473025;28;20511;-66
2023/06/01 12:38:10;;;;;;;4.18;1.90;;;16.80;83.90;;;;;;10476437;28;20378;-65
2023/06/01 12:43:20;;;;;;;3.42;1.55;;;16.80;83.80;;;;;;10483882;28;20059;-65
2023/06/01 12:48:32;;;;;;;3.78;1.83;;;16.80;83.80;;;;;;10493450;28;20028;-66
2023/06/01 12:53:32;;;;;;;2.47;1.55;;;16.80;83.70;;;;;;10480171;28;20021;-66
2023/06/01 12:58:33;;;;;;;4.32;1.83;;;16.80;83.70;;;;;;10477221;28;20024;-66
2023/06/01 13:03:34;;;;;;;2.92;1.60;;;16.90;83.60;;;;;;10472166;28;20132;-66
2023/06/01 13:08:34;;;;;;;5.25;1.80;;;16.90;83.60;;;;;;10480143;28;20024;-66
2023/06/01 13:13:35;;;;;;;3.75;1.90;;;16.90;84.10;;;;;;10475309;28;20058;-66
2023/06/01 13:18:36;;;;;;;3.88;2.33;;;17.00;83.50;;;;;;10477102;28;20028;-66
2023/06/01 13:23:37;;;;;;;6.10;2.00;;;17.00;83.40;;;;;;10481602;28;20515;-66
2023/06/01 13:28:37;;;;;;;2.65;1.67;;;17.00;83.40;;;;;;10484287;28;20013;-66
2023/06/01 13:33:38;;;;;;;3.97;2.05;;;17.10;83.50;;;;;;10474259;28;20029;-66
2023/06/01 13:38:40;;;;;;;4.80;1.80;;;17.00;83.40;;;;;;10469968;28;20395;-66
2023/06/01 13:43:42;;;;;;;3.20;2.00;;;17.00;83.40;;;;;;10472543;28;20090;-66
2023/06/01 13:48:43;;;;;;;6.15;2.00;;;17.10;83.50;;;;;;10478612;28;20066;-66
2023/06/01 13:53:44;;;;;;;4.45;2.40;;;17.10;83.50;;;;;;10477389;28;20567;-66
2023/06/01 13:58:45;;;;;;;4.72;1.80;;;17.10;83.50;;;;;;10472893;28;20103;-66
2023/06/01 14:03:45;;;;;;;3.67;1.95;;;17.10;83.60;;;;;;10482867;28;20492;-67
2023/06/01 14:08:46;;;;;;;2.80;1.70;;;17.10;83.60;;;;;;10470888;28;20443;-67
2023/06/01 14:13:47;;;;;;;4.97;2.08;;;16.80;83.30;;;;;;10461769;28;20523;-69
2023/06/01 14:18:47;;;;;;;6.00;2.70;;;17.10;83.10;;;;;;10482050;28;20016;-68
2023/06/01 14:23:48;;;;;;;5.68;2.38;;;16.60;82.20;;;;;;10483454;28;20119;-68
2023/06/01 14:28:49;;;;;;;4.82;2.92;;;16.00;83.10;;;;;;10480298;28;20024;-68
2023/06/01 14:33:49;;;;;;;7.55;2.35;;;15.60;83.70;;;;;;10483385;28;20115;-68
2023/06/01 14:38:50;;;;;;;5.78;2.65;;;15.60;84.10;;;;;;10474688;28;20032;-68
2023/06/01 14:43:50;;;;;;;7.30;2.80;;;15.40;84.40;;;;;;10466986;28;20024;-68
2023/06/01 14:48:51;;;;;;;6.32;2.53;;;15.20;85.10;;;;;;10470847;28;20032;-68
2023/06/01 14:53:52;;;;;;;7.93;2.60;;;15.20;85.20;;;;;;10479654;28;20115;-68
2023/06/01 14:58:53;;;;;;;8.75;3.03;;;15.60;84.70;;;;;;10477097;28;20424;-68
2023/06/01 15:03:54;;;;;;;6.10;2.55;;;15.30;85.10;;;;;;10469372;28;20094;-67
2023/06/01 15:08:54;;;;;;;8.30;2.60;;;15.20;85.30;;;;;;10479302;28;20027;-68
2023/06/01 15:13:55;;;;;;;9.88;3.63;;;15.00;85.60;;;;;;10478607;28;20108;-67
2023/06/01 15:18:56;;;;;;;5.85;2.55;;;14.90;86.10;;;;;;10483024;28;20222;-67
2023/06/01 15:23:56;;;;;;;8.02;2.70;;;14.80;86.60;;;;;;10486969;28;20020;-68
2023/06/01 15:28:57;;;;;;;6.05;2.15;;;14.80;86.90;;;;;;10474938;28;20028;-68
2023/06/01 15:33:57;;;;;;;6.93;2.60;;;14.70;87.60;;;;;;10475371;28;20082;-68
2023/06/01 15:39:01;;;;;;;4.82;2.00;;;14.60;87.70;;;;;;10476815;28;20036;-68
2023/06/01 15:44:01;;;;;;;6.07;2.40;;;14.40;87.70;;;;;;10479243;28;20120;-67
2023/06/01 15:49:02;;;;;;;6.50;2.13;;;14.40;87.40;;;;;;10482590;28;20419;-67
2023/06/01 15:54:03;;;;;;;5.90;2.20;;;14.40;87.40;;;;;;10480249;28;20033;-67
2023/06/01 15:59:04;;;;;;;6.65;2.20;;;14.40;87.50;;;;;;10472724;28;20024;-67
2023/06/01 16:04:04;;;;;;;13.90;3.85;;;14.30;87.70;;;;;;10476677;28;20036;-68
2023/06/01 16:09:05;;;;;;;4.70;2.30;;;14.20;88.00;;;;;;10479715;28;20096;-68
2023/06/01 16:14:09;;;;;;;6.03;2.13;;;14.20;87.80;;;;;;10487179;28;20043;-68
2023/06/01 16:19:10;;;;;;;4.80;2.15;;;14.30;87.60;;;;;;10481073;28;20655;-68
2023/06/01 16:24:11;;;;;;;4.70;2.10;;;14.30;87.50;;;;;;10480471;28;20070;-66
2023/06/01 16:29:11;;;;;;;6.15;2.13;;;14.40;87.50;;;;;;10497541;28;20467;-66
2023/06/01 16:34:12;;;;;;;5.15;1.90;;;14.30;87.40;;;;;;10477930;28;20028;-66
2023/06/01 16:39:13;;;;;;;6.03;2.00;;;14.30;87.30;;;;;;10480493;28;20028;-66
2023/06/01 16:44:14;;;;;;;4.95;2.20;;;14.30;87.40;;;;;;10483005;28;20027;-66
2023/06/01 16:49:15;;;;;;;5.97;2.00;;;14.20;87.60;;;;;;10488569;28;20013;-66
2023/06/01 16:54:15;;;;;;;3.90;1.77;;;14.20;88.40;;;;;;10485204;28;20020;-66
2023/06/01 16:59:16;;;;;;;7.47;2.15;;;14.00;88.50;;;;;;10480401;28;20056;-67
2023/06/01 17:04:16;;;;;;;5.00;1.90;;;14.00;88.60;;;;;;10471940;28;20032;-66
2023/06/01 17:09:17;;;;;;;7.18;2.03;;;13.90;88.60;;;;;;10482076;28;20024;-66
2023/06/01 17:14:18;;;;;;;4.78;2.00;;;13.90;88.70;;;;;;10481755;28;20074;-66
2023/06/01 17:19:18;;;;;;;5.70;1.75;;;14.10;88.50;;;;;;10483009;28;20059;-66
2023/06/01 17:24:19;;;;;;;2.97;1.88;;;14.00;88.60;;;;;;10486407;28;20484;-66
2023/06/01 17:29:20;;;;;;;4.60;1.65;;;13.90;89.00;;;;;;10490213;28;20131;-66
2023/06/01 17:34:20;;;;;;;3.20;1.50;;;13.80;89.00;;;;;;10479496;28;20484;-66
2023/06/01 17:39:21;;;;;;;8.18;2.65;;;13.70;89.00;;;;;;10477251;28;20575;-66
2023/06/01 17:44:24;;;;;;;4.07;1.48;;;13.70;88.90;;;;;;10481715;28;20119;-66
2023/06/01 17:49:25;;;;;;;2.80;1.63;;;13.90;88.80;;;;;;10485482;28;20067;-65
2023/06/01 17:54:27;;;;;;;6.90;1.80;;;13.80;88.80;;;;;;10489164;28;20020;-69
2023/06/01 17:59:28;;;;;;;8.13;1.90;;;13.80;89.00;;;;;;10480490;28;20458;-63
2023/06/01 18:04:28;;;;;;;3.45;1.80;;;14.00;88.60;;;;;;10481498;28;20036;-63
2023/06/01 18:09:29;;;;;;;4.88;1.90;;;14.30;88.00;;;;;;10484879;28;20016;-64
2023/06/01 18:14:30;;;;;;;9.77;2.97;;;14.60;87.70;;;;;;10473744;28;20028;-64
2023/06/01 18:19:30;;;;;;;4.90;1.60;;;14.70;87.30;;;;;;10476009;28;20030;-63
2023/06/01 18:24:31;;;;;;;5.32;1.98;;;14.90;87.10;;;;;;10470706;28;20074;-63
2023/06/01 18:29:31;;;;;;;2.75;1.40;;;15.00;86.80;;;;;;10467355;28;20021;-64
2023/06/01 18:34:32;;;;;;;4.90;1.50;;;15.10;86.70;;;;;;10481406;28;20112;-63
2023/06/01 18:39:33;;;;;;;4.18;1.70;;;15.10;86.50;;;;;;10484656;28;20028;-63
2023/06/01 18:44:33;;;;;;;1.88;1.35;;;15.20;86.40;;;;;;10468361;28;20021;-64
2023/06/01 18:49:34;;;;;;;4.00;1.52;;;15.30;86.30;;;;;;10483686;28;20338;-63
2023/06/01 18:54:40;;;;;;;3.70;1.50;;;15.30;86.20;;;;;;10482849;28;20108;-63
2023/06/01 18:59:40;;;;;;;6.70;2.15;;;15.30;86.70;;;;;;10485091;28;20030;-63
2023/06/01 19:04:41;;;;;;;4.38;1.98;;;15.30;86.10;;;;;;10476982;28;20036;-64
2023/06/01 19:09:42;;;;;;;5.40;2.08;;;15.40;86.00;;;;;;10476995;28;20032;-64
2023/06/01 19:14:44;;;;;;;3.65;1.90;;;15.30;86.10;;;;;;10475592;28;20028;-65
2023/06/01 19:19:44;;;;;;;4.57;1.80;;;15.40;86.00;;;;;;10477592;28;20071;-65
2023/06/01 19:24:45;;;;;;;4.53;2.17;;;15.40;86.00;;;;;;10460476;28;20116;-65
2023/06/01 19:29:46;;;;;;;3.72;2.15;;;15.40;86.00;;;;;;10474014;28;20036;-66
2023/06/01 19:34:46;;;;;;;6.57;2.00;;;15.40;85.90;;;;;;10471920;28;20364;-65
2023/06/01 19:39:47;;;;;;;2.53;1.80;;;15.40;85.90;;;;;;10478160;28;20527;-65
2023/06/01 19:44:48;;;;;;;3.15;1.80;;;15.40;85.90;;;;;;10477352;28;20388;-65
2023/06/01 19:49:48;;;;;;;3.67;1.92;;;15.40;85.80;;;;;;10480516;28;20009;-65
2023/06/01 19:54:49;;;;;;;3.80;1.90;;;15.40;85.70;;;;;;10470368;28;20032;-65
2023/06/01 19:59:51;;;;;;;4.68;1.75;;;15.40;86.30;;;;;;10474989;28;20526;-65
2023/06/01 20:04:51;;;;;;;3.83;1.80;;;15.50;85.70;;;;;;10479234;28;20050;-66
2023/06/01 20:09:52;;;;;;;2.78;1.45;;;15.50;85.70;;;;;;10477060;28;20077;-66
2023/06/01 20:14:53;;;;;;;2.28;1.38;;;15.40;85.50;;;;;;10479241;28;20398;-66
2023/06/01 20:19:54;;;;;;;4.43;1.63;;;15.40;85.50;;;;;;10487817;28;20024;-65
2023/06/01 20:24:54;;;;;;;3.08;1.75;;;15.40;85.50;;;;;;10481243;28;20036;-66
2023/06/01 20:29:55;;;;;;;3.78;1.60;;;15.40;85.50;;;;;;10470428;28;20540;-66
2023/06/01 20:34:56;;;;;;;5.45;1.90;;;15.40;85.40;;;;;;10476599;28;20505;-66
2023/06/01 20:39:56;;;;;;;3.47;1.77;;;15.40;85.30;;;;;;10478962;28;20029;-65
2023/06/01 20:44:59;;;;;;;4.20;1.60;;;15.40;85.30;;;;;;10473911;28;20042;-66
2023/06/01 20:50:00;;;;;;;7.60;3.03;;;15.30;85.20;;;;;;10479831;28;20085;-66
2023/06/01 20:55:02;;;;;;;3.63;1.90;;;15.40;85.20;;;;;;10476541;28;20055;-66
2023/06/01 21:00:03;;;;;;;4.10;1.50;;;15.30;85.20;;;;;;10489285;28;20028;-65
2023/06/01 21:05:04;;;;;;;7.80;2.42;;;15.30;85.10;;;;;;10494689;28;20020;-66
2023/06/01 21:10:06;;;;;;;5.13;1.75;;;15.30;85.00;;;;;;10484521;28;20027;-66
2023/06/01 21:15:07;;;;;;;5.65;1.85;;;15.30;84.90;;;;;;10489706;28;20046;-65
2023/06/01 21:20:08;;;;;;;3.80;1.77;;;15.30;84.90;;;;;;10488137;28;20429;-65
2023/06/01 21:25:09;;;;;;;6.60;1.98;;;15.30;85.30;;;;;;10501607;28;20052;-65
2023/06/01 21:30:10;;;;;;;3.35;1.77;;;15.30;84.70;;;;;;10489032;28;20021;-65
2023/06/01 21:35:10;;;;;;;5.68;2.42;;;15.30;84.60;;;;;;10495279;28;20088;-65
2023/06/01 21:40:11;;;;;;;2.58;1.80;;;15.30;84.60;;;;;;10494191;28;20599;-66
2023/06/01 21:45:11;;;;;;;7.60;2.08;;;15.30;84.50;;;;;;10477225;28;20404;-65
2023/06/01 21:50:12;;;;;;;6.38;2.10;;;15.30;84.50;;;;;;10484426;28;20618;-65
2023/06/01 21:55:13;;;;;;;3.15;1.80;;;15.20;84.50;;;;;;10488804;28;20074;-65
2023/06/01 22:00:15;;;;;;;5.20;1.80;;;15.30;84.50;;;;;;10477831;28;20127;-66
2023/06/01 22:05:16;;;;;;;3.13;2.03;;;15.20;84.40;;;;;;10486822;28;20035;-66
2023/06/01 22:10:16;;;;;;;3.72;1.63;;;15.20;84.40;;;;;;10494777;28;20031;-65
2023/06/01 22:15:18;;;;;;;2.88;1.75;;;15.10;84.30;;;;;;10481577;28;20028;-65
2023/06/01 22:20:18;;;;;;;4.90;1.67;;;15.20;84.30;;;;;;10488480;28;20067;-66
2023/06/01 22:25:19;;;;;;;5.22;1.88;;;15.20;84.30;;;;;;10487499;28;20179;-66
2023/06/01 22:30:20;;;;;;;5.35;1.70;;;15.20;84.30;;;;;;10486938;28;20020;-65
2023/06/01 22:35:20;;;;;;;4.80;2.05;;;15.20;84.30;;;;;;10487258;28;20124;-65
2023/06/01 22:40:21;;;;;;;3.58;2.05;;;15.10;84.30;;;;;;10488260;28;20101;-66
2023/06/01 22:45:21;;;;;;;4.40;1.90;;;15.10;84.30;;;;;;10474901;28;20143;-66
2023/06/01 22:50:22;;;;;;;5.03;1.85;;;15.20;84.30;;;;;;10472685;28;20025;-65
2023/06/01 22:55:23;;;;;;;5.78;1.60;;;15.10;84.20;;;;;;10485099;28;20032;-65
2023/06/01 23:00:25;;;;;;;5.20;1.70;;;15.20;84.30;;;;;;10480250;28;20474;-65
2023/06/01 23:05:26;;;;;;;4.90;1.92;;;15.10;84.20;;;;;;10486355;28;20016;-65
2023/06/01 23:10:28;;;;;;;7.43;1.90;;;15.10;84.10;;;;;;10480847;28;20438;-65
2023/06/01 23:15:29;;;;;;;5.05;1.88;;;15.10;84.10;;;;;;10480832;28;20032;-66
2023/06/01 23:20:30;;;;;;;6.38;2.28;;;15.10;84.00;;;;;;10477931;28;20024;-65
2023/06/01 23:25:30;;;;;;;5.32;2.10;;;15.10;84.00;;;;;;10479424;28;20077;-65
2023/06/01 23:30:31;;;;;;;3.15;1.63;;;15.10;83.90;;;;;;10488362;28;20029;-65
2023/06/01 23:35:32;;;;;;;5.53;2.10;;;15.00;83.80;;;;;;10485126;28;20500;-65
2023/06/01 23:40:32;;;;;;;4.85;2.03;;;15.10;83.80;;;;;;10486646;28;20050;-65
2023/06/01 23:45:33;;;;;;;5.32;2.10;;;15.00;83.70;;;;;;10475905;28;20509;-65
2023/06/01 23:50:33;;;;;;;2.75;1.95;;;15.00;83.70;;;;;;10482188;28;20074;-66
2023/06/01 23:55:34;;;;;;;4.13;2.30;;;15.10;83.70;;;;;;10476669;28;20028;-65
